Time;durP1;ratioP1;P1;durP2;ratioP2;P2;SDS_P1;SDS_P2;PMS_P1;PMS_P2;Temp;Humidity;BMP_temperature;BMP_pressure;BME280_temperature;BME280_humidity;BME280_pressure;Samples;Min_cycle;Max_cycle;Signal;HPM_P1;HPM_P2
2023/06/04 00:00:39;;;;;;;11.80;6.70;;;14.00;84.00;;;;;;5134034;27;20464;-72
2023/06/04 00:03:06;;;;;;;11.80;8.67;;;14.00;83.80;;;;;;5132741;27;20437;-74
2023/06/04 00:05:33;;;;;;;9.33;7.63;;;14.00;83.50;;;;;;5134215;27;20433;-74
2023/06/04 00:08:00;;;;;;;10.60;8.40;;;13.90;83.90;;;;;;5133080;27;20821;-75
2023/06/04 00:10:27;;;;;;;12.27;7.57;;;13.90;84.30;;;;;;5133444;27;20490;-74
2023/06/04 00:12:55;;;;;;;12.40;7.30;;;13.90;84.70;;;;;;5133217;27;20487;-75
2023/06/04 00:15:23;;;;;;;9.73;7.90;;;13.90;84.80;;;;;;5120165;27;20958;-74
2023/06/04 00:17:50;;;;;;;8.80;7.37;;;13.80;84.80;;;;;;5134145;27;20991;-74
2023/06/04 00:20:17;;;;;;;10.13;7.73;;;13.80;85.10;;;;;;5133440;27;20469;-74
2023/06/04 00:22:44;;;;;;;9.10;7.90;;;13.70;85.20;;;;;;5134282;27;20526;-75
2023/06/04 00:25:11;;;;;;;10.10;7.70;;;13.70;85.80;;;;;;5133641;27;20529;-74
2023/06/04 00:27:38;;;;;;;7.97;6.60;;;13.60;85.70;;;;;;5135083;27;20437;-75
2023/06/04 00:30:09;;;;;;;8.90;7.53;;;13.60;86.50;;;;;;5134138;27;20442;-75
2023/06/04 00:32:36;;;;;;;9.33;8.10;;;13.60;86.30;;;;;;5134439;28;20425;-74
2023/06/04 00:35:04;;;;;;;10.73;8.57;;;13.60;85.80;;;;;;5133786;28;20962;-75
2023/06/04 00:37:31;;;;;;;12.43;8.20;;;13.60;86.50;;;;;;5133656;28;21148;-74
2023/06/04 00:39:58;;;;;;;8.50;7.60;;;13.60;87.00;;;;;;5135181;27;20491;-74
2023/06/04 00:42:25;;;;;;;10.60;6.97;;;13.50;87.00;;;;;;5155899;27;20469;-74
2023/06/04 00:44:53;;;;;;;11.23;7.93;;;13.50;86.60;;;;;;5139251;27;20461;-73
2023/06/04 00:47:22;;;;;;;11.00;7.90;;;13.50;86.90;;;;;;5133683;28;20481;-74
2023/06/04 00:49:49;;;;;;;12.00;8.70;;;13.40;88.30;;;;;;5134565;28;20425;-73
2023/06/04 00:52:17;;;;;;;9.47;7.90;;;13.40;87.20;;;;;;5135085;28;20430;-74
2023/06/04 00:54:44;;;;;;;10.70;8.80;;;13.40;87.10;;;;;;5133416;28;20457;-73
2023/06/04 00:57:11;;;;;;;10.93;8.27;;;13.30;87.00;;;;;;5134540;28;20538;-73
2023/06/04 00:59:41;;;;;;;11.57;7.30;;;13.20;87.40;;;;;;5137147;27;20187;-73
2023/06/04 01:02:14;;;;;;;11.23;7.83;;;13.20;88.40;;;;;;5138498;27;20424;-73
2023/06/04 01:04:52;;;;;;;10.75;7.57;;;13.30;89.40;;;;;;5136560;27;20421;-73
2023/06/04 01:07:20;;;;;;;12.70;8.00;;;13.30;89.80;;;;;;5138337;27;20232;-74
2023/06/04 01:09:48;;;;;;;9.20;7.17;;;13.30;89.30;;;;;;5136357;27;20552;-74
2023/06/04 01:12:16;;;;;;;11.13;7.30;;;13.20;89.00;;;;;;5137316;27;20477;-74
2023/06/04 01:14:43;;;;;;;9.90;7.27;;;13.20;89.00;;;;;;5137751;27;20425;-75
2023/06/04 01:17:18;;;;;;;10.47;7.67;;;13.30;89.60;;;;;;5137783;27;20508;-74
2023/06/04 01:20:11;;;;;;;11.05;7.25;;;13.20;89.80;;;;;;5138107;27;20945;-75
2023/06/04 01:22:44;;;;;;;9.50;7.63;;;13.10;89.90;;;;;;5136769;27;20188;-73
2023/06/04 01:25:19;;;;;;;9.73;7.25;;;13.10;89.40;;;;;;5135775;27;20184;-74
2023/06/04 01:27:50;;;;;;;13.32;8.60;;;13.10;89.90;;;;;;5137679;27;20187;-74
2023/06/04 01:30:17;;;;;;;9.50;7.78;;;13.00;90.20;;;;;;5137798;27;20180;-74
2023/06/04 01:32:47;;;;;;;9.00;7.07;;;13.00;90.20;;;;;;5136590;27;20609;-74
2023/06/04 01:35:15;;;;;;;9.63;7.40;;;12.90;90.30;;;;;;5136385;27;20536;-75
2023/06/04 01:37:42;;;;;;;8.77;7.88;;;12.90;90.40;;;;;;5135608;27;20239;-74
2023/06/04 01:40:10;;;;;;;8.65;6.90;;;12.80;90.40;;;;;;5136289;27;20207;-74
2023/06/04 01:42:37;;;;;;;14.00;8.23;;;12.80;90.40;;;;;;5137600;27;20226;-74
2023/06/04 01:45:06;;;;;;;15.32;7.57;;;12.80;90.50;;;;;;5137411;27;20285;-74
2023/06/04 01:47:33;;;;;;;14.27;9.13;;;12.80;91.00;;;;;;5138106;27;20222;-75
2023/06/04 01:50:00;;;;;;;7.80;6.57;;;12.70;91.10;;;;;;5138692;27;20227;-74
2023/06/04 01:52:28;;;;;;;11.77;8.10;;;12.70;91.00;;;;;;5134939;27;20469;-74
2023/06/04 01:54:55;;;;;;;10.10;8.07;;;12.70;90.90;;;;;;5138277;27;20183;-75
2023/06/04 01:57:23;;;;;;;10.52;7.63;;;12.70;91.00;;;;;;5138431;27;20212;-74
2023/06/04 01:59:50;;;;;;;11.18;7.45;;;12.70;90.80;;;;;;5137489;27;20188;-75
2023/06/04 02:02:18;;;;;;;9.48;7.05;;;12.70;90.70;;;;;;5137992;27;20187;-75
2023/06/04 02:04:46;;;;;;;8.80;6.70;;;12.60;90.70;;;;;;5138046;27;20219;-74
2023/06/04 02:07:17;;;;;;;9.70;7.10;;;12.60;90.80;;;;;;5138226;27;20183;-74
2023/06/04 02:09:45;;;;;;;9.95;7.65;;;12.60;90.30;;;;;;5137984;27;20243;-75
2023/06/04 02:12:12;;;;;;;9.70;8.48;;;12.50;90.20;;;;;;5138764;27;20192;-75
2023/06/04 02:14:41;;;;;;;10.60;8.38;;;12.40;90.10;;;;;;5139458;27;20258;-75
2023/06/04 02:17:12;;;;;;;10.35;8.10;;;12.30;90.80;;;;;;5138735;27;20286;-75
2023/06/04 02:19:39;;;;;;;12.45;9.15;;;12.30;91.30;;;;;;5137848;27;20183;-74
2023/06/04 02:22:07;;;;;;;9.85;7.95;;;12.30;91.50;;;;;;5135954;27;20199;-74
2023/06/04 02:24:34;;;;;;;8.70;7.18;;;12.30;91.50;;;;;;5137089;27;20653;-74
2023/06/04 02:27:02;;;;;;;12.68;8.85;;;12.30;91.40;;;;;;5136925;27;20186;-74
2023/06/04 02:29:29;;;;;;;9.57;8.30;;;12.30;91.70;;;;;;5137451;27;20187;-74
2023/06/04 02:31:56;;;;;;;11.98;7.40;;;12.30;92.00;;;;;;5135422;27;20211;-74
2023/06/04 02:34:24;;;;;;;13.15;8.27;;;12.30;92.20;;;;;;5137120;27;20199;-74
2023/06/04 02:36:51;;;;;;;13.25;8.27;;;12.30;92.00;;;;;;5136020;27;20181;-74
2023/06/04 02:39:18;;;;;;;10.60;7.97;;;12.30;91.90;;;;;;5136341;27;20254;-76
2023/06/04 02:41:45;;;;;;;13.95;8.32;;;12.30;91.60;;;;;;5138013;27;20231;-74
2023/06/04 02:44:14;;;;;;;8.65;7.55;;;12.20;91.40;;;;;;5138610;27;20287;-75
2023/06/04 02:46:41;;;;;;;11.27;7.00;;;12.20;91.60;;;;;;5136779;27;20531;-74
2023/06/04 02:49:08;;;;;;;9.38;7.20;;;12.20;91.40;;;;;;5138312;27;20538;-73
2023/06/04 02:51:35;;;;;;;8.95;7.57;;;12.20;91.10;;;;;;5138976;27;20590;-73
2023/06/04 02:54:02;;;;;;;7.68;6.88;;;12.20;90.70;;;;;;5138568;27;20219;-74
2023/06/04 02:56:31;;;;;;;8.93;7.45;;;12.10;90.50;;;;;;5135757;27;20219;-74
2023/06/04 02:58:58;;;;;;;8.52;7.65;;;12.00;90.70;;;;;;5135713;27;20242;-74
2023/06/04 03:01:27;;;;;;;11.05;8.00;;;12.00;91.20;;;;;;5134950;27;20215;-74
2023/06/04 03:03:54;;;;;;;10.35;8.45;;;12.00;91.30;;;;;;5135585;27;20192;-74
2023/06/04 03:06:23;;;;;;;9.60;7.40;;;11.90;91.20;;;;;;5136481;27;20219;-74
2023/06/04 03:08:51;;;;;;;10.52;8.35;;;11.80;91.50;;;;;;5137554;27;20251;-74
2023/06/04 03:11:19;;;;;;;9.68;7.57;;;11.80;91.80;;;;;;5137763;27;20194;-73
2023/06/04 03:13:46;;;;;;;9.85;8.20;;;11.80;91.90;;;;;;5137411;27;20191;-74
2023/06/04 03:16:13;;;;;;;16.02;12.05;;;11.80;92.20;;;;;;5135968;27;20219;-76
2023/06/04 03:18:43;;;;;;;16.58;13.23;;;11.70;92.40;;;;;;5136877;27;20222;-74
2023/06/04 03:21:11;;;;;;;16.58;12.77;;;11.70;92.70;;;;;;5136206;27;20534;-73
2023/06/04 03:23:39;;;;;;;14.18;11.23;;;11.80;92.80;;;;;;5117471;27;20252;-74
2023/06/04 03:26:06;;;;;;;11.45;10.25;;;11.80;92.80;;;;;;5135237;27;20215;-74
2023/06/04 03:28:34;;;;;;;13.60;10.93;;;11.80;92.70;;;;;;5135433;27;20207;-75
2023/06/04 03:31:02;;;;;;;13.52;10.93;;;11.80;92.40;;;;;;5136038;27;20184;-74
2023/06/04 03:33:29;;;;;;;14.50;10.45;;;11.80;92.40;;;;;;5137054;27;20188;-75
2023/06/04 03:35:58;;;;;;;15.98;11.05;;;11.80;92.50;;;;;;5136165;27;20223;-74
2023/06/04 03:38:26;;;;;;;18.50;12.48;;;11.80;92.30;;;;;;5136404;27;20223;-74
2023/06/04 03:40:53;;;;;;;33.08;16.25;;;11.80;92.30;;;;;;5136152;27;20275;-73
2023/06/04 03:43:20;;;;;;;28.83;14.20;;;11.80;92.10;;;;;;5136538;27;20196;-74
2023/06/04 03:45:47;;;;;;;20.58;13.02;;;11.80;92.50;;;;;;5137043;27;20234;-73
2023/06/04 03:48:14;;;;;;;13.57;10.05;;;11.80;92.40;;;;;;5136775;27;20228;-74
2023/06/04 03:50:42;;;;;;;11.50;9.65;;;11.80;92.00;;;;;;5136962;27;20282;-74
2023/06/04 03:53:10;;;;;;;10.27;7.93;;;11.80;92.20;;;;;;5135601;27;20184;-74
2023/06/04 03:55:37;;;;;;;11.02;7.97;;;11.80;92.30;;;;;;5136257;27;20223;-74
2023/06/04 03:58:06;;;;;;;10.30;7.95;;;11.80;92.30;;;;;;5136316;27;20302;-74
2023/06/04 04:00:33;;;;;;;11.40;7.45;;;11.90;92.40;;;;;;5135112;27;20195;-75
2023/06/04 04:03:00;;;;;;;13.00;8.70;;;11.90;92.80;;;;;;5136844;27;20219;-74
2023/06/04 04:05:27;;;;;;;11.40;9.15;;;11.90;92.90;;;;;;5136462;27;20194;-74
2023/06/04 04:07:54;;;;;;;14.30;9.05;;;11.90;93.20;;;;;;5135470;27;20190;-73
2023/06/04 04:10:22;;;;;;;9.95;8.15;;;11.90;92.70;;;;;;5136706;27;20661;-74
2023/06/04 04:12:51;;;;;;;12.82;8.90;;;12.00;92.80;;;;;;5136361;27;20646;-74
2023/06/04 04:15:18;;;;;;;11.98;8.27;;;12.00;92.70;;;;;;5136559;27;20279;-74
2023/06/04 04:17:45;;;;;;;9.57;8.38;;;12.00;92.60;;;;;;5136388;27;20610;-74
2023/06/04 04:20:12;;;;;;;10.05;8.07;;;11.90;92.60;;;;;;5136640;27;20191;-73
2023/06/04 04:22:41;;;;;;;11.05;8.05;;;12.00;92.70;;;;;;5136041;27;20245;-74
2023/06/04 04:25:09;;;;;;;9.75;7.75;;;12.00;92.90;;;;;;5135492;27;20188;-74
2023/06/04 04:27:40;;;;;;;17.27;9.77;;;12.10;92.90;;;;;;5136413;27;20258;-73
2023/06/04 04:30:09;;;;;;;11.70;9.07;;;12.10;92.80;;;;;;5136549;27;20226;-74
2023/06/04 04:32:38;;;;;;;13.05;8.85;;;12.10;93.10;;;;;;5134629;27;20192;-74
2023/06/04 04:35:07;;;;;;;12.15;7.90;;;12.20;93.00;;;;;;5134223;28;20188;-73
2023/06/04 04:37:38;;;;;;;12.93;8.30;;;12.30;92.80;;;;;;5134468;28;20754;-74
2023/06/04 04:40:09;;;;;;;9.73;7.63;;;12.30;92.70;;;;;;5133991;28;20180;-74
2023/06/04 04:42:37;;;;;;;12.13;7.80;;;12.30;93.00;;;;;;5134876;28;20191;-74
2023/06/04 04:45:05;;;;;;;10.65;8.60;;;12.40;93.30;;;;;;5135450;28;20227;-74
2023/06/04 04:47:32;;;;;;;10.40;8.02;;;12.50;93.30;;;;;;5135542;28;20275;-75
2023/06/04 04:49:59;;;;;;;10.73;9.05;;;12.60;93.10;;;;;;5135100;28;20215;-74
2023/06/04 04:52:26;;;;;;;15.32;9.32;;;12.60;92.90;;;;;;5134143;28;20222;-74
2023/06/04 04:54:58;;;;;;;13.05;8.40;;;12.70;92.90;;;;;;5135386;28;20223;-75
2023/06/04 04:57:25;;;;;;;9.77;8.65;;;12.80;93.10;;;;;;5135811;28;20235;-74
2023/06/04 04:59:56;;;;;;;10.68;7.30;;;12.90;93.20;;;;;;5134726;28;20298;-73
2023/06/04 05:02:23;;;;;;;8.33;7.20;;;12.90;93.10;;;;;;5135509;28;20188;-75
2023/06/04 05:04:50;;;;;;;11.75;7.70;;;13.10;93.20;;;;;;5135350;28;20426;-75
2023/06/04 05:07:19;;;;;;;9.75;7.78;;;13.10;93.30;;;;;;5135905;28;20216;-75
2023/06/04 05:09:46;;;;;;;9.73;8.07;;;13.20;93.30;;;;;;5135597;28;20215;-74
2023/06/04 05:12:13;;;;;;;11.10;8.00;;;13.30;93.10;;;;;;5135089;28;20444;-75
2023/06/04 05:14:41;;;;;;;14.13;9.60;;;13.40;93.10;;;;;;5135349;28;20484;-74
2023/06/04 05:17:10;;;;;;;11.60;8.17;;;13.50;93.40;;;;;;5134108;28;20471;-74
2023/06/04 05:19:38;;;;;;;10.40;8.20;;;13.70;93.60;;;;;;5135046;28;20902;-74
2023/06/04 05:22:06;;;;;;;11.67;8.77;;;13.80;93.50;;;;;;5134375;28;20433;-74
2023/06/04 05:24:33;;;;;;;11.90;8.17;;;13.90;93.20;;;;;;5135513;28;20541;-75
2023/06/04 05:27:00;;;;;;;12.73;8.80;;;14.00;93.00;;;;;;5133801;28;20437;-75
2023/06/04 05:29:27;;;;;;;11.23;8.90;;;14.10;92.60;;;;;;5134792;28;20472;-75
2023/06/04 05:31:55;;;;;;;11.10;7.73;;;14.20;92.10;;;;;;5134507;28;20465;-75
2023/06/04 05:34:23;;;;;;;12.23;9.10;;;14.30;91.90;;;;;;5135064;28;20426;-74
2023/06/04 05:36:50;;;;;;;11.83;8.93;;;14.40;91.70;;;;;;5134800;28;20472;-75
2023/06/04 05:39:18;;;;;;;8.90;7.67;;;14.50;91.50;;;;;;5134522;28;20516;-75
2023/06/04 05:41:45;;;;;;;12.90;8.20;;;14.60;91.50;;;;;;5115112;28;20442;-74
2023/06/04 05:44:12;;;;;;;10.87;8.67;;;14.70;91.50;;;;;;5132902;27;20444;-74
2023/06/04 05:46:40;;;;;;;11.87;8.63;;;14.90;91.20;;;;;;5136747;27;20497;-74
2023/06/04 05:49:07;;;;;;;11.10;8.63;;;14.90;90.60;;;;;;5137863;27;20433;-74
2023/06/04 05:51:35;;;;;;;11.57;8.80;;;15.00;90.70;;;;;;5138304;27;20770;-75
2023/06/04 05:54:02;;;;;;;9.07;7.50;;;15.20;90.40;;;;;;5136876;27;20433;-74
2023/06/04 05:56:29;;;;;;;9.70;8.63;;;15.30;90.20;;;;;;5137211;27;20430;-75
2023/06/04 05:58:56;;;;;;;10.77;7.13;;;15.40;90.20;;;;;;5137378;27;20520;-74
2023/06/04 06:01:23;;;;;;;10.67;8.27;;;15.40;90.00;;;;;;5139213;27;20465;-75
2023/06/04 06:03:50;;;;;;;7.93;7.10;;;15.50;89.80;;;;;;5139444;27;20502;-75
2023/06/04 06:06:18;;;;;;;9.73;7.90;;;15.60;89.30;;;;;;5138919;27;20470;-75
2023/06/04 06:08:46;;;;;;;8.73;7.10;;;15.80;88.30;;;;;;5137594;27;20461;-75
2023/06/04 06:11:13;;;;;;;9.10;7.67;;;15.80;85.90;;;;;;5139990;27;20432;-75
2023/06/04 06:13:40;;;;;;;10.03;7.37;;;15.90;86.50;;;;;;5139987;27;20476;-75
2023/06/04 06:16:07;;;;;;;10.57;8.17;;;16.00;86.70;;;;;;5139970;27;20454;-75
2023/06/04 06:18:34;;;;;;;11.23;7.60;;;16.10;86.40;;;;;;5139551;27;20484;-76
2023/06/04 06:21:01;;;;;;;8.83;7.93;;;16.20;86.40;;;;;;5139694;27;20429;-75
2023/06/04 06:23:28;;;;;;;9.50;7.37;;;16.30;86.00;;;;;;5138837;27;20923;-76
2023/06/04 06:25:57;;;;;;;8.40;6.50;;;16.50;85.10;;;;;;5139753;27;20437;-75
2023/06/04 06:28:24;;;;;;;13.87;8.57;;;16.60;84.80;;;;;;5139632;27;20461;-75
2023/06/04 06:30:51;;;;;;;9.53;7.93;;;16.70;84.90;;;;;;5137449;27;20431;-75
2023/06/04 06:33:21;;;;;;;15.00;7.57;;;16.80;84.70;;;;;;5134059;27;20473;-75
2023/06/04 06:35:48;;;;;;;8.40;6.93;;;16.90;84.50;;;;;;5136260;27;20769;-75
2023/06/04 06:38:15;;;;;;;15.20;8.40;;;17.00;80.50;;;;;;5137089;27;20480;-75
2023/06/04 06:40:42;;;;;;;10.83;7.80;;;17.00;80.40;;;;;;5135782;27;20473;-75
2023/06/04 06:43:10;;;;;;;9.53;8.33;;;17.10;81.00;;;;;;5136248;27;20457;-75
2023/06/04 06:45:37;;;;;;;13.80;8.20;;;17.20;79.70;;;;;;5135206;27;20438;-75
2023/06/04 06:48:05;;;;;;;8.17;6.93;;;17.30;80.00;;;;;;5136146;27;20845;-75
2023/06/04 06:50:33;;;;;;;11.83;7.00;;;17.40;79.80;;;;;;5134816;27;20534;-75
2023/06/04 06:53:00;;;;;;;15.03;7.23;;;17.50;79.60;;;;;;5136419;27;20444;-76
2023/06/04 06:55:27;;;;;;;10.23;7.57;;;17.70;79.20;;;;;;5135982;27;20484;-76
2023/06/04 06:57:53;;;;;;;9.43;7.00;;;17.80;79.10;;;;;;5134279;27;20473;-76
2023/06/04 07:00:22;;;;;;;9.87;7.30;;;17.90;79.80;;;;;;5135966;27;20518;-75
2023/06/04 07:02:49;;;;;;;11.00;7.23;;;18.10;79.80;;;;;;5135930;27;20832;-75
2023/06/04 07:05:17;;;;;;;9.30;6.97;;;18.20;78.70;;;;;;5136084;27;20433;-75
2023/06/04 07:07:44;;;;;;;8.80;7.57;;;18.40;77.50;;;;;;5136925;27;20431;-75
2023/06/04 07:10:11;;;;;;;10.80;7.77;;;18.50;75.80;;;;;;5135609;27;20774;-75
2023/06/04 07:12:38;;;;;;;12.97;8.13;;;18.60;75.20;;;;;;5134727;27;20445;-75
2023/06/04 07:15:06;;;;;;;8.60;6.87;;;18.70;74.90;;;;;;5135769;27;20528;-73
2023/06/04 07:17:35;;;;;;;13.40;7.23;;;18.90;75.80;;;;;;5134313;27;20463;-75
2023/06/04 07:20:03;;;;;;;8.87;5.97;;;19.00;76.00;;;;;;5135428;27;20481;-76
2023/06/04 07:22:31;;;;;;;8.30;6.37;;;19.20;75.10;;;;;;5135692;27;20476;-76
2023/06/04 07:24:58;;;;;;;12.23;6.37;;;19.30;73.80;;;;;;5135704;27;20478;-76
2023/06/04 07:27:26;;;;;;;7.80;6.33;;;19.40;73.70;;;;;;5135004;27;20539;-76
2023/06/04 07:29:53;;;;;;;11.20;7.10;;;19.50;73.90;;;;;;5136138;27;20431;-76
2023/06/04 07:32:20;;;;;;;9.10;6.10;;;19.70;74.20;;;;;;5135524;27;20491;-75
2023/06/04 07:34:48;;;;;;;10.87;6.60;;;19.80;74.00;;;;;;5134228;27;20940;-75
2023/06/04 07:37:16;;;;;;;8.40;5.90;;;19.90;72.70;;;;;;5134725;27;20471;-75
2023/06/04 07:39:43;;;;;;;9.40;7.30;;;20.10;71.90;;;;;;5135180;27;20486;-76
2023/06/04 07:42:09;;;;;;;9.77;6.50;;;20.20;71.10;;;;;;5135326;27;20467;-75
2023/06/04 07:44:38;;;;;;;9.50;6.10;;;20.30;71.10;;;;;;5136261;27;20536;-75
2023/06/04 07:47:05;;;;;;;7.73;6.30;;;20.50;70.60;;;;;;5129720;27;20539;-76
2023/06/04 07:49:32;;;;;;;10.10;6.70;;;20.60;71.20;;;;;;5134010;27;20467;-75
2023/06/04 07:52:00;;;;;;;10.80;6.40;;;20.80;70.20;;;;;;5133076;27;20439;-76
2023/06/04 07:54:27;;;;;;;8.50;5.70;;;21.00;68.60;;;;;;5128984;27;20426;-75
2023/06/04 07:56:55;;;;;;;6.60;5.00;;;21.10;68.10;;;;;;5133213;27;20474;-75
2023/06/04 07:59:22;;;;;;;8.33;6.50;;;21.20;67.60;;;;;;5131923;27;20477;-76
2023/06/04 08:01:51;;;;;;;10.43;5.47;;;21.30;68.30;;;;;;5130129;27;20525;-75
2023/06/04 08:04:18;;;;;;;10.47;6.07;;;21.40;68.20;;;;;;5129528;27;20431;-76
2023/06/04 08:06:45;;;;;;;9.90;6.43;;;21.60;67.50;;;;;;5132684;27;20469;-76
2023/06/04 08:09:13;;;;;;;9.87;5.60;;;21.80;67.10;;;;;;5130948;27;20749;-74
2023/06/04 08:11:42;;;;;;;7.90;6.13;;;22.00;67.00;;;;;;5130914;27;20460;-75
2023/06/04 08:14:10;;;;;;;7.40;6.13;;;22.20;66.30;;;;;;5132848;27;20435;-75
2023/06/04 08:16:37;;;;;;;7.30;6.00;;;22.30;64.40;;;;;;5132661;27;20507;-75
2023/06/04 08:19:06;;;;;;;7.57;5.93;;;22.40;65.10;;;;;;5129382;27;20965;-76
2023/06/04 08:21:33;;;;;;;11.60;6.00;;;22.60;65.30;;;;;;5132298;27;20497;-75
2023/06/04 08:24:01;;;;;;;7.17;5.60;;;22.90;63.90;;;;;;5129839;27;20444;-75
2023/06/04 08:26:30;;;;;;;6.17;4.90;;;22.90;62.00;;;;;;5129043;27;20437;-76
2023/06/04 08:28:57;;;;;;;7.00;5.33;;;23.10;63.20;;;;;;5129679;27;20562;-75
2023/06/04 08:31:24;;;;;;;6.33;4.60;;;23.30;62.30;;;;;;5131131;27;20512;-76
2023/06/04 08:33:51;;;;;;;7.83;4.97;;;23.50;60.10;;;;;;5126785;27;20528;-77
2023/06/04 08:36:18;;;;;;;9.33;4.70;;;23.70;61.00;;;;;;5129825;28;20443;-77
2023/06/04 08:38:45;;;;;;;7.20;4.53;;;23.80;59.10;;;;;;5128322;28;20434;-76
2023/06/04 08:41:23;;;;;;;8.23;4.50;;;24.00;58.20;;;;;;5129981;28;20479;-76
2023/06/04 08:43:52;;;;;;;5.50;4.30;;;24.10;57.90;;;;;;5131948;28;20435;-76
2023/06/04 08:46:21;;;;;;;5.03;4.17;;;24.30;57.40;;;;;;5132093;28;20444;-76
2023/06/04 08:48:48;;;;;;;7.30;5.30;;;24.30;56.50;;;;;;5130212;28;20848;-76
2023/06/04 08:51:15;;;;;;;8.57;4.43;;;24.50;56.40;;;;;;5133297;28;20429;-77
2023/06/04 08:53:47;;;;;;;8.33;4.33;;;24.60;51.10;;;;;;5132766;28;20440;-76
2023/06/04 08:56:14;;;;;;;5.67;4.37;;;24.70;51.50;;;;;;5129114;28;20437;-76
2023/06/04 08:58:42;;;;;;;7.70;5.20;;;24.90;53.30;;;;;;5133066;28;20491;-76
2023/06/04 09:01:11;;;;;;;8.53;4.67;;;25.10;51.10;;;;;;5132789;28;20476;-77
2023/06/04 09:03:39;;;;;;;6.60;4.80;;;25.30;49.40;;;;;;5132856;28;20849;-77
2023/06/04 09:06:06;;;;;;;5.10;3.93;;;25.40;46.70;;;;;;5131793;27;21658;-76
2023/06/04 09:08:38;;;;;;;5.97;3.50;;;25.40;45.10;;;;;;5132258;28;20459;-76
2023/06/04 09:11:08;;;;;;;5.90;4.33;;;25.30;44.40;;;;;;5132505;28;20958;-76
2023/06/04 09:13:36;;;;;;;6.10;4.40;;;25.40;43.50;;;;;;5131666;28;20481;-76
2023/06/04 09:16:05;;;;;;;7.00;4.30;;;25.50;43.30;;;;;;5132018;28;20437;-76
2023/06/04 09:18:34;;;;;;;7.30;4.47;;;25.70;43.20;;;;;;5131942;28;20444;-76
2023/06/04 09:21:06;;;;;;;6.10;4.00;;;25.70;41.50;;;;;;5135425;27;20479;-77
2023/06/04 09:23:35;;;;;;;7.70;4.40;;;25.70;43.40;;;;;;5136792;27;20430;-76
2023/06/04 09:26:09;;;;;;;6.27;4.13;;;25.80;42.30;;;;;;5136169;27;20438;-76
2023/06/04 09:28:36;;;;;;;6.37;3.60;;;26.00;42.70;;;;;;5136417;27;20441;-75
2023/06/04 09:31:04;;;;;;;6.73;4.60;;;26.30;40.40;;;;;;5136560;27;20435;-76
2023/06/04 09:33:31;;;;;;;6.40;3.67;;;26.30;40.00;;;;;;5136157;27;20432;-76
2023/06/04 09:36:00;;;;;;;7.10;4.20;;;26.40;40.90;;;;;;5135181;27;20435;-77
2023/06/04 09:38:35;;;;;;;10.20;4.00;;;26.60;39.80;;;;;;5136327;27;20440;-77
2023/06/04 09:41:04;;;;;;;5.80;4.30;;;26.60;40.20;;;;;;5135883;27;20557;-77
2023/06/04 09:43:32;;;;;;;7.70;4.33;;;26.70;39.20;;;;;;5136043;27;20839;-77
2023/06/04 09:46:11;;;;;;;6.50;4.50;;;26.80;38.30;;;;;;5135632;27;20434;-78
2023/06/04 09:48:39;;;;;;;7.47;3.27;;;27.10;38.60;;;;;;5130783;27;20471;-77
2023/06/04 09:51:15;;;;;;;6.90;3.97;;;27.40;38.40;;;;;;5132874;27;20434;-75
2023/06/04 09:53:42;;;;;;;7.87;3.60;;;27.40;37.80;;;;;;5135017;27;20493;-76
2023/06/04 09:56:11;;;;;;;5.20;3.27;;;27.40;39.00;;;;;;5126375;27;20433;-75
2023/06/04 09:58:40;;;;;;;5.93;4.20;;;27.60;38.90;;;;;;5132648;27;20438;-76
2023/06/04 10:01:07;;;;;;;5.70;3.67;;;27.70;38.10;;;;;;5133338;27;20506;-77
2023/06/04 10:03:37;;;;;;;5.63;4.20;;;27.70;37.00;;;;;;5130464;27;20443;-78
2023/06/04 10:06:06;;;;;;;6.10;4.10;;;27.80;37.70;;;;;;5131491;27;20430;-76
2023/06/04 10:08:36;;;;;;;5.20;3.87;;;27.90;37.90;;;;;;5131014;27;20525;-77
2023/06/04 10:11:05;;;;;;;6.70;3.60;;;28.00;37.10;;;;;;5133366;27;20442;-77
2023/06/04 10:13:42;;;;;;;4.60;3.63;;;28.00;35.60;;;;;;5130147;27;20551;-75
2023/06/04 10:16:12;;;;;;;4.70;3.67;;;28.00;35.40;;;;;;5132893;27;20949;-76
2023/06/04 10:18:39;;;;;;;5.73;3.53;;;28.20;36.70;;;;;;5133388;27;20442;-76
2023/06/04 10:21:09;;;;;;;4.50;3.57;;;28.40;36.50;;;;;;5133385;27;20511;-76
2023/06/04 10:23:39;;;;;;;5.20;3.10;;;28.60;35.70;;;;;;5116770;27;20440;-75
2023/06/04 10:26:06;;;;;;;4.97;3.50;;;28.90;35.40;;;;;;5124134;27;20560;-75
2023/06/04 10:28:41;;;;;;;9.67;3.50;;;29.00;35.10;;;;;;5130218;27;21562;-77
2023/06/04 10:31:09;;;;;;;6.87;3.90;;;29.30;34.70;;;;;;5128935;27;20534;-73
2023/06/04 10:33:43;;;;;;;6.67;3.93;;;29.50;34.20;;;;;;5126793;27;20448;-76
2023/06/04 10:36:23;;;;;;;5.73;4.33;;;29.70;33.60;;;;;;5129972;27;20478;-74
2023/06/04 10:38:54;;;;;;;8.10;4.10;;;29.80;32.40;;;;;;5130833;27;20519;-77
2023/06/04 10:41:22;;;;;;;5.37;3.47;;;29.80;31.60;;;;;;5132767;27;20836;-76
2023/06/04 10:43:50;;;;;;;5.70;3.47;;;29.70;33.50;;;;;;5131050;27;20449;-76
2023/06/04 10:46:22;;;;;;;12.10;4.63;;;29.80;33.10;;;;;;5130971;27;20438;-76
2023/06/04 10:48:50;;;;;;;8.03;4.50;;;29.80;31.50;;;;;;5131654;27;20434;-77
2023/06/04 10:51:30;;;;;;;6.77;3.67;;;29.60;31.40;;;;;;5129709;27;20467;-76
2023/06/04 10:53:59;;;;;;;4.90;3.77;;;29.40;32.10;;;;;;5130440;27;20439;-77
2023/06/04 10:56:31;;;;;;;5.30;3.50;;;29.30;32.60;;;;;;5130402;27;20474;-77
2023/06/04 10:58:59;;;;;;;4.57;3.73;;;29.20;31.10;;;;;;5130913;27;20439;-77
2023/06/04 11:01:28;;;;;;;4.90;3.67;;;29.10;32.00;;;;;;5131487;27;20582;-78
2023/06/04 11:03:56;;;;;;;5.83;4.37;;;29.10;31.40;;;;;;5131659;27;20482;-76
2023/06/04 11:06:26;;;;;;;5.17;3.77;;;29.10;32.30;;;;;;5129959;27;20441;-77
2023/06/04 11:09:05;;;;;;;6.40;3.70;;;29.20;33.50;;;;;;5131798;27;20980;-77
2023/06/04 11:11:32;;;;;;;7.93;4.30;;;29.40;33.10;;;;;;5131566;27;20449;-77
2023/06/04 11:14:09;;;;;;;5.97;4.03;;;29.60;32.20;;;;;;5132490;27;20448;-78
2023/06/04 11:16:39;;;;;;;6.73;4.67;;;29.80;32.30;;;;;;5130804;27;20867;-77
2023/06/04 11:19:07;;;;;;;8.70;3.40;;;30.00;31.60;;;;;;5131724;27;20444;-77
2023/06/04 11:21:37;;;;;;;8.70;4.40;;;30.10;29.90;;;;;;5130993;27;20484;-77
2023/06/04 11:24:08;;;;;;;4.90;3.70;;;30.00;30.10;;;;;;5131970;27;20467;-77
2023/06/04 11:26:36;;;;;;;7.03;4.30;;;30.00;29.30;;;;;;5128792;27;20447;-77
2023/06/04 11:29:08;;;;;;;7.37;4.47;;;29.80;31.20;;;;;;5131991;27;20441;-76
2023/06/04 11:31:43;;;;;;;5.80;3.90;;;29.80;30.60;;;;;;5131810;27;20439;-76
2023/06/04 11:34:11;;;;;;;8.10;4.60;;;29.80;31.40;;;;;;5131702;27;20938;-77
2023/06/04 11:36:41;;;;;;;5.43;3.43;;;29.90;31.10;;;;;;5130443;27;20497;-77
2023/06/04 11:39:12;;;;;;;5.30;3.50;;;29.90;30.70;;;;;;5131896;27;20439;-75
2023/06/04 11:41:39;;;;;;;5.50;3.07;;;30.00;29.70;;;;;;5131638;27;20549;-77
2023/06/04 11:44:08;;;;;;;4.70;4.20;;;29.90;29.40;;;;;;5131909;27;20468;-77
2023/06/04 11:46:36;;;;;;;4.50;3.67;;;29.70;29.20;;;;;;5131024;27;20500;-77
2023/06/04 11:49:04;;;;;;;6.57;3.87;;;29.60;29.00;;;;;;5130356;27;20441;-76
2023/06/04 11:51:32;;;;;;;6.07;4.30;;;29.50;30.00;;;;;;5131063;27;20487;-78
2023/06/04 11:54:05;;;;;;;8.63;4.17;;;29.40;30.20;;;;;;5131397;27;20454;-77
2023/06/04 11:56:33;;;;;;;6.67;3.50;;;29.40;30.00;;;;;;5130626;27;20438;-77
2023/06/04 11:59:00;;;;;;;4.83;3.53;;;29.40;31.00;;;;;;5128124;27;20988;-76
2023/06/04 12:01:32;;;;;;;5.40;4.00;;;29.30;31.00;;;;;;5130913;27;20483;-77
2023/06/04 12:04:04;;;;;;;5.10;3.97;;;29.30;29.90;;;;;;5131079;27;20443;-76
2023/06/04 12:06:35;;;;;;;7.00;3.70;;;29.20;31.60;;;;;;5128178;27;20797;-76
2023/06/04 12:09:04;;;;;;;4.37;3.43;;;29.20;31.80;;;;;;5128698;27;20474;-76
2023/06/04 12:11:35;;;;;;;8.33;3.83;;;29.10;31.30;;;;;;5131609;27;20439;-76
2023/06/04 12:14:08;;;;;;;4.70;3.23;;;29.20;30.90;;;;;;5131356;27;20429;-77
2023/06/04 12:16:40;;;;;;;8.33;3.60;;;29.20;31.00;;;;;;5131478;27;20434;-76
2023/06/04 12:19:08;;;;;;;7.00;3.57;;;29.20;31.90;;;;;;5128974;27;20444;-76
2023/06/04 12:21:37;;;;;;;6.60;4.00;;;29.30;31.20;;;;;;5130331;27;20506;-77
2023/06/04 12:24:11;;;;;;;4.40;3.30;;;29.30;29.10;;;;;;5130784;27;20189;-77
2023/06/04 12:26:41;;;;;;;6.57;3.80;;;29.40;29.80;;;;;;5126827;27;20462;-77
2023/06/04 12:29:11;;;;;;;7.00;4.60;;;29.40;29.70;;;;;;5131498;27;20436;-77
2023/06/04 12:31:39;;;;;;;9.60;4.80;;;29.30;30.40;;;;;;5131613;27;20440;-73
2023/06/04 12:34:10;;;;;;;5.10;3.80;;;29.20;30.10;;;;;;5131122;28;20827;-76
2023/06/04 12:36:38;;;;;;;5.47;3.80;;;29.10;29.90;;;;;;5130829;28;21026;-75
2023/06/04 12:39:07;;;;;;;4.50;3.53;;;28.90;29.00;;;;;;5130529;28;20526;-76
2023/06/04 12:41:36;;;;;;;4.87;3.63;;;28.80;29.20;;;;;;5130382;28;20474;-76
2023/06/04 12:44:05;;;;;;;4.20;3.30;;;28.70;30.40;;;;;;5131502;28;20440;-76
2023/06/04 12:46:32;;;;;;;7.13;3.93;;;28.70;29.80;;;;;;5131438;28;20433;-77
2023/06/04 12:48:59;;;;;;;4.97;3.50;;;28.70;29.70;;;;;;5129689;28;20796;-75